Time;durP1;ratioP1;P1;durP2;ratioP2;P2;SDS_P1;SDS_P2;PMS_P1;PMS_P2;Temp;Humidity;BMP_temperature;BMP_pressure;BME280_temperature;BME280_humidity;BME280_pressure;Samples;Min_cycle;Max_cycle;Signal;HPM_P1;HPM_P2
2022/09/06 00:01:23;;;;;;;2.70;1.38;;;;;;;17.86;67.97;100734.66;5052043;28;20059;-81
2022/09/06 00:04:26;;;;;;;3.72;1.40;;;;;;;17.87;67.74;100739.00;5052278;28;20106;-81
2022/09/06 00:07:31;;;;;;;3.15;1.40;;;;;;;17.89;67.91;100729.97;5056306;28;20483;-81
2022/09/06 00:10:36;;;;;;;3.95;1.40;;;;;;;17.67;68.95;100729.94;5056253;28;20075;-81
2022/09/06 00:13:39;;;;;;;3.72;1.02;;;;;;;17.73;68.90;100729.47;5055535;28;20122;-81
2022/09/06 00:16:42;;;;;;;3.28;1.60;;;;;;;17.71;68.86;100728.75;5055866;28;20040;-81
2022/09/06 00:19:49;;;;;;;2.47;1.13;;;;;;;17.72;68.74;100717.22;5055897;28;20047;-81
2022/09/06 00:22:58;;;;;;;2.72;1.48;;;;;;;17.67;68.94;100724.66;5055523;28;20064;-81
2022/09/06 00:26:05;;;;;;;2.72;1.40;;;;;;;17.58;69.13;100715.66;5055305;28;20090;-81
2022/09/06 00:29:08;;;;;;;3.25;1.30;;;;;;;17.51;69.61;100703.88;5055061;28;20099;-81
2022/09/06 00:32:14;;;;;;;3.30;1.55;;;;;;;17.54;69.09;100708.09;5055675;28;20051;-81
2022/09/06 00:35:24;;;;;;;6.88;1.85;;;;;;;17.61;68.85;100707.50;5055488;28;20064;-81
2022/09/06 00:38:28;;;;;;;3.35;1.60;;;;;;;17.69;68.62;100704.22;5055439;28;20048;-81
2022/09/06 00:41:32;;;;;;;5.03;1.98;;;;;;;17.70;68.54;100707.72;5055519;28;20098;-81
2022/09/06 00:44:37;;;;;;;5.00;1.85;;;;;;;17.50;69.02;100707.50;5055309;28;20404;-81
2022/09/06 00:47:43;;;;;;;4.95;1.70;;;;;;;17.67;68.65;100714.91;5055206;28;20087;-81
2022/09/06 00:50:55;;;;;;;3.15;1.55;;;;;;;17.65;68.61;100718.66;5055430;28;20055;-81
2022/09/06 00:54:03;;;;;;;5.88;1.75;;;;;;;17.56;68.63;100712.28;5054955;28;20044;-81
2022/09/06 00:57:07;;;;;;;2.95;1.70;;;;;;;17.51;69.38;100718.91;5055087;28;20133;-81
2022/09/06 01:00:14;;;;;;;5.22;1.77;;;;;;;17.49;69.47;100731.41;5055046;28;20110;-81
2022/09/06 01:03:26;;;;;;;5.43;2.28;;;;;;;17.26;70.07;100805.38;5054365;28;20052;-81
2022/09/06 01:06:47;;;;;;;2.75;1.67;;;;;;;17.31;67.94;100773.31;5054595;28;20549;-81
2022/09/06 01:10:04;;;;;;;2.95;1.60;;;;;;;17.72;66.65;100761.34;5054883;28;20048;-81
2022/09/06 01:13:20;;;;;;;5.10;1.73;;;;;;;17.84;67.47;100768.34;5054207;28;20111;-81
2022/09/06 01:16:41;;;;;;;6.13;1.80;;;;;;;17.87;67.40;100783.97;5053567;28;20518;-81
2022/09/06 01:20:09;;;;;;;6.28;2.05;;;;;;;17.87;67.28;100789.25;5042523;28;20105;-81
2022/09/06 01:23:50;;;;;;;5.43;2.10;;;;;;;17.83;68.26;100788.63;5054516;28;20096;-81
2022/09/06 01:27:19;;;;;;;2.92;1.80;;;;;;;17.88;67.78;100805.00;5054156;28;20071;-81
2022/09/06 01:30:24;;;;;;;5.20;2.10;;;;;;;17.76;67.84;100792.69;5054427;28;20099;-81
2022/09/06 01:33:34;;;;;;;6.40;1.92;;;;;;;17.78;67.94;100806.69;5054271;28;20040;-81
2022/09/06 01:36:51;;;;;;;4.38;1.88;;;;;;;17.88;67.79;100802.34;5053999;28;20070;-81
2022/09/06 01:39:57;;;;;;;3.85;2.08;;;;;;;17.82;67.79;100817.88;5053589;28;20056;-81
2022/09/06 01:43:09;;;;;;;5.32;2.10;;;;;;;17.79;67.78;100820.75;5054230;28;20048;-81
2022/09/06 01:46:26;;;;;;;4.93;1.88;;;;;;;17.56;68.25;100831.28;5053283;28;20039;-81
2022/09/06 01:49:48;;;;;;;3.92;1.80;;;;;;;17.75;68.06;100816.63;5053540;28;20085;-81
2022/09/06 01:53:23;;;;;;;6.07;2.22;;;;;;;17.79;68.37;100818.94;5053868;28;20043;-81
2022/09/06 01:56:44;;;;;;;8.52;2.60;;;;;;;17.82;67.69;100816.06;5053728;28;20536;-81
2022/09/06 02:00:11;;;;;;;6.00;2.13;;;;;;;17.75;68.54;100825.41;5041610;28;20121;-81
2022/09/06 02:03:48;;;;;;;3.03;1.73;;;;;;;17.72;69.19;100815.06;5053890;28;20048;-80
2022/09/06 02:07:24;;;;;;;5.13;1.75;;;;;;;17.74;69.28;100810.50;5053720;28;20102;-81
2022/09/06 02:11:00;;;;;;;5.32;1.95;;;;;;;17.80;69.44;100810.03;5052986;28;20047;-80
2022/09/06 02:14:13;;;;;;;7.35;1.85;;;;;;;17.84;68.93;100805.38;5049838;28;20075;-81
2022/09/06 02:17:31;;;;;;;5.57;1.90;;;;;;;17.96;68.54;100814.13;5049419;28;20044;-81
2022/09/06 02:20:40;;;;;;;5.15;2.10;;;;;;;18.05;68.20;100819.53;5045794;28;20075;-81
2022/09/06 02:23:46;;;;;;;3.92;1.63;;;;;;;17.89;68.13;100813.78;5030558;28;20400;-81
2022/09/06 02:26:50;;;;;;;7.68;2.00;;;;;;;17.96;67.06;100803.56;5030111;28;20079;-81
2022/09/06 02:29:53;;;;;;;5.05;2.42;;;;;;;17.86;68.02;100790.22;5030283;28;20060;-81
2022/09/06 02:33:05;;;;;;;5.13;1.80;;;;;;;17.88;68.33;100797.06;5030300;28;20123;-81
2022/09/06 02:36:09;;;;;;;4.72;1.90;;;;;;;17.73;69.52;100782.34;5029669;28;20147;-81
2022/09/06 02:39:13;;;;;;;5.93;2.50;;;;;;;17.70;69.81;100772.03;5028904;28;20409;-81
2022/09/06 02:42:17;;;;;;;4.88;1.70;;;;;;;17.81;70.21;100765.94;5029297;28;20052;-81
2022/09/06 02:45:20;;;;;;;6.25;2.22;;;;;;;17.75;70.56;100761.94;5028887;28;20555;-81
2022/09/06 02:48:24;;;;;;;6.10;1.83;;;;;;;17.65;70.75;100734.53;5028039;28;20055;-81
2022/09/06 02:51:28;;;;;;;4.72;2.08;;;;;;;17.60;71.52;100726.94;5024863;28;20080;-81
2022/09/06 02:54:32;;;;;;;8.48;2.47;;;;;;;17.42;71.94;100708.09;5027635;28;20124;-81
2022/09/06 02:57:36;;;;;;;4.90;2.40;;;;;;;17.49;72.48;100715.56;5016196;28;20044;-81
2022/09/06 03:00:41;;;;;;;3.83;2.20;;;;;;;17.46;72.14;100710.50;5028920;28;20049;-81
2022/09/06 03:03:48;;;;;;;7.75;2.35;;;;;;;17.26;72.85;100698.81;5044729;28;20545;-81
2022/09/06 03:06:52;;;;;;;3.97;1.90;;;;;;;17.06;73.24;100680.06;5036790;28;20098;-81
2022/09/06 03:09:57;;;;;;;4.78;2.28;;;;;;;17.30;72.78;100679.13;5048188;28;20055;-81
2022/09/06 03:13:00;;;;;;;4.25;2.17;;;;;;;17.46;73.25;100671.69;5047549;28;20040;-81
2022/09/06 03:16:05;;;;;;;7.15;2.35;;;;;;;17.49;73.19;100657.38;5047991;28;20144;-81
2022/09/06 03:19:08;;;;;;;3.90;2.25;;;;;;;17.58;72.80;100638.13;5048007;28;20056;-81
2022/09/06 03:22:13;;;;;;;3.20;2.20;;;;;;;17.40;73.94;100641.28;5064519;28;20059;-81
2022/09/06 03:25:18;;;;;;;4.30;1.92;;;;;;;17.59;73.38;100653.06;5067822;28;20105;-80
2022/09/06 03:28:22;;;;;;;8.73;2.58;;;;;;;17.40;73.09;100651.84;5079081;28;20039;-80
2022/09/06 03:31:29;;;;;;;8.30;2.30;;;;;;;17.41;74.08;100653.53;5047804;28;20071;-81
2022/09/06 03:34:32;;;;;;;4.80;2.63;;;;;;;17.15;75.14;100670.59;5047309;28;20647;-81
2022/09/06 03:37:36;;;;;;;5.75;1.92;;;;;;;17.22;74.82;100652.47;5060803;28;20066;-81
2022/09/06 03:40:42;;;;;;;6.07;2.35;;;;;;;17.19;75.70;100657.00;5069781;28;20070;-80
2022/09/06 03:43:46;;;;;;;4.28;2.10;;;;;;;17.12;75.47;100652.34;5088238;28;20450;-80
2022/09/06 03:46:56;;;;;;;4.00;2.10;;;;;;;17.07;75.91;100667.69;5086472;28;20114;-81
2022/09/06 03:50:01;;;;;;;7.72;2.30;;;;;;;17.23;75.52;100673.50;5067586;28;20044;-81
2022/09/06 03:53:07;;;;;;;6.60;2.00;;;;;;;17.22;75.52;100674.44;5068546;28;20048;-80
2022/09/06 03:56:14;;;;;;;3.13;1.88;;;;;;;17.29;75.01;100662.41;5068233;28;20056;-80
2022/09/06 03:59:21;;;;;;;4.70;2.15;;;;;;;17.21;75.27;100659.53;5082135;28;20051;-80
2022/09/06 04:02:28;;;;;;;5.90;2.05;;;;;;;17.13;75.53;100656.66;5087998;28;20212;-80
2022/09/06 04:05:36;;;;;;;6.95;1.85;;;;;;;17.08;76.13;100661.47;5087348;28;20477;-80
2022/09/06 04:08:41;;;;;;;3.40;1.85;;;;;;;17.17;75.37;100663.41;5087718;28;20440;-81
2022/09/06 04:11:46;;;;;;;3.28;1.80;;;;;;;17.13;75.24;100661.94;5087560;28;20457;-81
2022/09/06 04:14:51;;;;;;;7.85;2.28;;;;;;;17.07;75.49;100657.13;5087665;28;20089;-81
2022/09/06 04:17:56;;;;;;;3.88;2.08;;;;;;;17.12;75.56;100660.25;5087866;28;20036;-81
2022/09/06 04:21:01;;;;;;;3.42;1.88;;;;;;;17.15;75.20;100660.03;5077460;28;20058;-81
2022/09/06 04:24:07;;;;;;;6.53;1.98;;;;;;;16.98;75.81;100665.78;5069604;28;20129;-81
2022/09/06 04:27:13;;;;;;;3.65;1.63;;;;;;;16.89;76.28;100670.78;5071160;28;20048;-80
2022/09/06 04:30:19;;;;;;;4.35;1.70;;;;;;;16.88;75.91;100673.53;5071853;28;20588;-80
2022/09/06 04:33:26;;;;;;;4.47;1.73;;;;;;;16.89;75.87;100672.59;5069776;28;20458;-81
2022/09/06 04:36:29;;;;;;;3.10;1.80;;;;;;;16.70;77.19;100667.84;5069583;28;20043;-81
2022/09/06 04:39:34;;;;;;;5.95;1.98;;;;;;;16.56;77.09;100663.63;5082960;28;20038;-81
2022/09/06 04:42:38;;;;;;;6.03;1.83;;;;;;;16.57;77.16;100675.84;5088372;28;20189;-81
2022/09/06 04:45:43;;;;;;;5.25;1.80;;;;;;;16.66;76.83;100674.31;5087210;28;20140;-81
2022/09/06 04:48:49;;;;;;;3.65;1.80;;;;;;;16.70;76.41;100675.75;5086766;28;20043;-81
2022/09/06 04:51:52;;;;;;;6.13;1.67;;;;;;;16.70;76.37;100675.75;5086793;28;20093;-81
2022/09/06 04:54:56;;;;;;;8.02;2.20;;;;;;;16.79;75.84;100669.81;5074079;28;20043;-80
2022/09/06 04:58:10;;;;;;;3.47;1.98;;;;;;;16.73;76.29;100688.72;5070706;28;20155;-80
2022/09/06 05:01:14;;;;;;;4.07;1.87;;;;;;;16.71;76.56;100693.28;5071211;28;20109;-81
2022/09/06 05:04:18;;;;;;;3.40;1.67;;;;;;;16.71;75.98;100685.34;5070310;28;20345;-81
2022/09/06 05:07:22;;;;;;;4.57;1.70;;;;;;;16.76;75.56;100700.91;5070520;28;20035;-81
2022/09/06 05:10:26;;;;;;;3.58;1.73;;;;;;;16.54;76.39;100704.28;5070196;28;20039;-80
2022/09/06 05:13:30;;;;;;;5.35;1.80;;;;;;;16.40;77.16;100697.34;5070529;28;20048;-80
2022/09/06 05:16:34;;;;;;;6.63;1.70;;;;;;;16.41;77.14;100701.69;5071156;28;20075;-80
2022/09/06 05:19:41;;;;;;;8.07;2.63;;;;;;;16.46;76.72;100700.41;5070245;28;20145;-80
2022/09/06 05:22:55;;;;;;;2.92;1.58;;;;;;;16.59;76.24;100702.13;5070599;28;20079;-80
2022/09/06 05:25:58;;;;;;;3.33;1.67;;;;;;;16.39;77.11;100709.72;5070876;28;20047;-80
2022/09/06 05:29:03;;;;;;;4.88;1.90;;;;;;;16.49;77.11;100713.34;5070915;28;20108;-80
2022/09/06 05:32:15;;;;;;;3.53;1.45;;;;;;;16.41;77.59;100718.38;5070524;28;20070;-80
2022/09/06 05:35:19;;;;;;;2.95;1.67;;;;;;;16.33;77.74;100715.44;5069759;28;20077;-80
2022/09/06 05:38:24;;;;;;;4.22;1.27;;;;;;;16.37;77.55;100722.19;5071115;28;20043;-80
2022/09/06 05:41:28;;;;;;;2.65;1.40;;;;;;;16.57;77.20;100723.38;5071328;28;20495;-81
2022/09/06 05:44:37;;;;;;;4.40;1.98;;;;;;;16.45;78.00;100727.75;5069526;28;20047;-80
2022/09/06 05:47:43;;;;;;;5.00;1.70;;;;;;;16.45;78.30;100738.28;5069698;28;20043;-81
2022/09/06 05:50:59;;;;;;;4.95;1.67;;;;;;;16.53;77.67;100737.75;5068361;28;20048;-80
2022/09/06 05:54:03;;;;;;;4.85;1.90;;;;;;;16.58;77.44;100734.75;5068947;28;20059;-80
2022/09/06 05:57:07;;;;;;;5.47;1.98;;;;;;;16.56;78.02;100742.81;5069038;28;20109;-80
2022/09/06 06:00:13;;;;;;;2.42;1.55;;;;;;;16.69;77.46;100740.94;5069102;28;20042;-81
2022/09/06 06:03:17;;;;;;;4.72;1.80;;;;;;;16.73;77.01;100737.09;5069388;28;20046;-80
2022/09/06 06:06:26;;;;;;;5.82;1.88;;;;;;;16.78;77.67;100742.06;5070048;28;20143;-80
2022/09/06 06:09:30;;;;;;;3.05;1.77;;;;;;;16.84;77.83;100738.13;5069817;28;20071;-80
2022/09/06 06:12:34;;;;;;;8.88;1.95;;;;;;;16.82;78.54;100743.53;5069718;28;20685;-80
2022/09/06 06:15:39;;;;;;;4.25;2.00;;;;;;;16.88;78.31;100739.56;5068987;28;20195;-81
2022/09/06 06:18:46;;;;;;;4.88;1.75;;;;;;;16.88;78.31;100743.06;5068279;28;20105;-80
2022/09/06 06:21:50;;;;;;;5.00;1.83;;;;;;;17.03;78.40;100740.22;5068896;28;20087;-80
2022/09/06 06:24:54;;;;;;;4.53;2.08;;;;;;;17.22;77.84;100735.22;5070456;28;20403;-80
2022/09/06 06:27:58;;;;;;;3.88;2.10;;;;;;;17.23;77.15;100738.69;5070975;28;20051;-81
2022/09/06 06:31:03;;;;;;;3.03;1.55;;;;;;;17.33;77.47;100740.53;5058917;28;20047;-80
2022/09/06 06:34:07;;;;;;;5.57;1.98;;;;;;;17.40;77.28;100747.00;5069212;28;20340;-81
2022/09/06 06:37:11;;;;;;;3.25;1.45;;;;;;;17.35;77.86;100751.81;5068456;28;20043;-80
2022/09/06 06:40:14;;;;;;;4.35;1.50;;;;;;;17.37;77.93;100755.19;5070134;28;20046;-80
2022/09/06 06:43:18;;;;;;;3.83;1.60;;;;;;;17.48;77.23;100756.97;5070371;28;20070;-81
2022/09/06 06:46:25;;;;;;;3.08;1.45;;;;;;;17.62;76.64;100758.56;5068940;28;20090;-81
2022/09/06 06:49:29;;;;;;;3.75;2.13;;;;;;;17.66;75.99;100752.06;5068998;28;20141;-81
2022/09/06 06:52:33;;;;;;;3.88;1.73;;;;;;;17.57;76.94;100748.34;5068903;28;20087;-80
2022/09/06 06:55:38;;;;;;;4.07;1.58;;;;;;;17.64;77.35;100757.50;5068495;28;20047;-84
2022/09/06 06:58:43;;;;;;;5.18;1.63;;;;;;;17.78;76.63;100748.50;5068139;28;20074;-80
2022/09/06 07:01:49;;;;;;;2.88;1.67;;;;;;;17.75;77.20;100738.13;5070580;28;20102;-80
2022/09/06 07:04:53;;;;;;;4.32;1.67;;;;;;;17.82;76.79;100734.06;5069198;28;20145;-81
2022/09/06 07:07:56;;;;;;;5.70;1.63;;;;;;;17.88;76.60;100741.50;5069033;28;20040;-81
2022/09/06 07:11:01;;;;;;;4.35;1.63;;;;;;;17.85;78.70;100739.09;5068974;28;20162;-83
2022/09/06 07:14:05;;;;;;;4.55;1.67;;;;;;;17.97;77.09;100737.31;5067615;28;20055;-83
2022/09/06 07:17:09;;;;;;;2.97;1.40;;;;;;;18.02;76.38;100737.75;5068326;28;20040;-83
2022/09/06 07:20:13;;;;;;;4.45;1.60;;;;;;;18.18;76.18;100729.44;5067896;28;20036;-83
2022/09/06 07:23:18;;;;;;;3.90;1.75;;;;;;;18.26;75.97;100734.94;5066634;28;20046;-83
2022/09/06 07:26:27;;;;;;;6.35;1.80;;;;;;;18.44;75.12;100742.34;5067637;28;20101;-83
2022/09/06 07:29:31;;;;;;;6.97;1.65;;;;;;;18.50;74.87;100745.31;5067910;28;20050;-83
2022/09/06 07:32:35;;;;;;;5.80;1.63;;;;;;;18.57;75.64;100732.44;5068045;28;20565;-83
2022/09/06 07:35:39;;;;;;;6.65;1.40;;;;;;;18.71;74.78;100726.00;5067490;28;20051;-83
2022/09/06 07:38:47;;;;;;;3.72;1.60;;;;;;;18.85;73.77;100722.22;5054997;28;20532;-83
2022/09/06 07:41:51;;;;;;;4.97;1.35;;;;;;;18.90;71.91;100730.63;5067018;28;20042;-83
2022/09/06 07:44:56;;;;;;;6.68;1.70;;;;;;;18.95;71.55;100729.28;5066365;28;20453;-83
2022/09/06 07:48:00;;;;;;;8.38;1.55;;;;;;;19.04;72.09;100727.66;5066872;28;20106;-83
2022/09/06 07:51:13;;;;;;;4.43;1.60;;;;;;;19.20;71.50;100728.03;5067917;28;20079;-83
2022/09/06 07:54:17;;;;;;;10.85;1.83;;;;;;;19.28;71.39;100717.63;5067313;28;20570;-83
2022/09/06 07:57:23;;;;;;;6.03;1.20;;;;;;;19.41;70.77;100711.25;5067789;28;20560;-83
2022/09/06 08:00:29;;;;;;;4.20;1.10;;;;;;;19.51;70.60;100720.09;5067744;28;20043;-83
2022/09/06 08:03:34;;;;;;;4.38;1.50;;;;;;;19.59;70.41;100717.63;5068445;28;20055;-83
2022/09/06 08:06:41;;;;;;;2.22;1.00;;;;;;;19.71;69.82;100716.56;5068333;28;20093;-83
2022/09/06 08:09:48;;;;;;;3.45;1.15;;;;;;;19.78;70.16;100710.72;5067759;28;20047;-83
2022/09/06 08:13:00;;;;;;;4.28;1.40;;;;;;;19.86;69.90;100710.91;5067736;28;20060;-83
2022/09/06 08:16:14;;;;;;;4.93;1.60;;;;;;;19.98;69.14;100712.47;5067721;28;20519;-83
2022/09/06 08:19:17;;;;;;;3.95;1.50;;;;;;;20.03;67.80;100710.22;5068591;28;20102;-83
2022/09/06 08:22:22;;;;;;;2.08;0.90;;;;;;;20.14;66.49;100703.97;5068091;28;20315;-83
2022/09/06 08:25:26;;;;;;;5.95;1.70;;;;;;;20.20;66.38;100711.38;5067292;28;20090;-83
2022/09/06 08:28:32;;;;;;;4.90;1.35;;;;;;;20.30;65.55;100706.09;5071090;28;20074;-83
2022/09/06 08:31:40;;;;;;;3.63;1.35;;;;;;;20.39;64.22;100711.41;5070975;28;20078;-83
2022/09/06 08:34:44;;;;;;;2.97;1.05;;;;;;;20.46;64.33;100706.38;5070672;28;20047;-83
2022/09/06 08:37:48;;;;;;;2.83;1.08;;;;;;;20.47;63.78;100700.06;5071223;28;20046;-83
2022/09/06 08:40:54;;;;;;;4.70;1.25;;;;;;;20.50;64.35;100697.13;5072158;28;20040;-83
2022/09/06 08:44:23;;;;;;;2.20;1.00;;;;;;;20.69;63.74;100692.81;5071616;28;20276;-83
2022/09/06 08:47:28;;;;;;;3.80;0.90;;;;;;;20.91;61.93;100695.16;5070921;28;20194;-83
2022/09/06 08:50:34;;;;;;;2.65;0.60;;;;;;;20.98;62.06;100696.25;5071366;28;20093;-83
2022/09/06 08:53:45;;;;;;;5.03;1.13;;;;;;;21.01;61.28;100695.97;5071444;28;20070;-83
2022/09/06 08:57:11;;;;;;;5.70;0.95;;;;;;;21.09;59.84;100685.47;5070127;28;20457;-83
2022/09/06 09:00:18;;;;;;;8.45;1.00;;;;;;;21.10;60.42;100673.84;5052170;28;20114;-83
2022/09/06 09:03:25;;;;;;;2.40;0.77;;;;;;;21.14;60.27;100672.56;5070495;28;20105;-83
2022/09/06 09:06:31;;;;;;;6.63;1.10;;;;;;;21.05;59.82;100667.28;5070229;28;20124;-84
2022/09/06 09:09:37;;;;;;;3.45;0.82;;;;;;;21.06;60.10;100663.66;5070154;28;20441;-84
2022/09/06 09:12:46;;;;;;;2.63;0.95;;;;;;;21.21;59.73;100667.50;5061596;28;20091;-84
2022/09/06 09:15:51;;;;;;;2.47;0.75;;;;;;;21.19;59.30;100660.69;5051515;28;20051;-83
2022/09/06 09:18:59;;;;;;;1.95;0.80;;;;;;;21.14;58.82;100658.44;5050488;28;20527;-83
2022/09/06 09:22:03;;;;;;;5.00;1.13;;;;;;;21.47;59.92;100657.06;5034727;28;20514;-84
2022/09/06 09:25:23;;;;;;;2.40;1.08;;;;;;;22.09;54.50;100643.13;5030412;28;20099;-84
2022/09/06 09:28:28;;;;;;;3.05;0.70;;;;;;;21.88;54.59;100651.38;5030414;28;20396;-84
2022/09/06 09:31:34;;;;;;;1.50;0.60;;;;;;;21.94;54.49;100638.31;5029845;28;20099;-84
2022/09/06 09:34:39;;;;;;;1.65;0.57;;;;;;;22.04;53.75;100635.56;5032494;28;20060;-83
2022/09/06 09:37:43;;;;;;;2.97;0.77;;;;;;;22.47;53.52;100636.66;5029400;28;20595;-83
2022/09/06 09:41:00;;;;;;;3.15;0.82;;;;;;;22.44;51.93;100631.63;5030878;28;20123;-83
2022/09/06 09:44:09;;;;;;;1.88;0.50;;;;;;;22.72;51.87;100621.69;5029656;28;20048;-84
2022/09/06 09:47:26;;;;;;;1.85;0.55;;;;;;;22.78;51.84;100618.38;5029871;28;20124;-84
2022/09/06 09:50:34;;;;;;;2.08;0.80;;;;;;;22.69;52.28;100624.66;5030182;28;20654;-84
2022/09/06 09:53:53;;;;;;;1.45;0.70;;;;;;;22.57;52.99;100617.91;5031513;28;20056;-84
2022/09/06 09:56:59;;;;;;;4.55;0.80;;;;;;;23.41;50.32;100625.22;5031974;28;20095;-84
2022/09/06 10:00:13;;;;;;;2.40;0.80;;;;;;;23.61;49.56;100625.78;5031638;28;20139;-84
2022/09/06 10:03:29;;;;;;;2.40;0.60;;;;;;;23.48;49.63;100625.41;5032581;28;20032;-84
2022/09/06 10:06:36;;;;;;;3.90;0.70;;;;;;;23.87;48.46;100621.22;5031775;28;20056;-84
2022/09/06 10:09:46;;;;;;;2.70;0.75;;;;;;;23.67;49.35;100615.31;5030450;28;20072;-84
2022/09/06 10:13:13;;;;;;;2.65;0.50;;;;;;;23.68;49.29;100605.47;5029552;28;20087;-83
2022/09/06 10:16:42;;;;;;;4.00;0.60;;;;;;;23.17;50.55;100610.78;5024921;28;20083;-83
2022/09/06 10:19:47;;;;;;;1.60;0.50;;;;;;;22.97;51.68;100602.22;5031003;28;20095;-83
2022/09/06 10:23:18;;;;;;;3.78;1.25;;;;;;;23.01;51.17;100608.06;5039287;28;20109;-84
2022/09/06 10:26:37;;;;;;;1.98;0.70;;;;;;;22.89;51.65;100594.13;5056778;28;20117;-83
2022/09/06 10:30:01;;;;;;;1.63;0.60;;;;;;;22.89;51.47;100588.78;5069738;28;20051;-84
2022/09/06 10:33:30;;;;;;;3.40;0.70;;;;;;;22.83;51.87;100578.75;5069578;28;20063;-83
2022/09/06 10:36:43;;;;;;;1.90;0.70;;;;;;;23.07;50.98;100579.88;5069515;28;20035;-83
2022/09/06 10:40:06;;;;;;;4.78;1.00;;;;;;;23.09;50.76;100591.25;5048539;28;20095;-84
2022/09/06 10:43:21;;;;;;;1.92;0.52;;;;;;;23.09;50.33;100593.91;5049460;28;20590;-84
2022/09/06 10:46:27;;;;;;;1.95;0.60;;;;;;;23.09;50.25;100589.41;5049646;28;20054;-83
2022/09/06 10:49:40;;;;;;;2.75;0.80;;;;;;;23.03;49.94;100586.53;5049506;28;20118;-83
2022/09/06 10:52:47;;;;;;;4.57;1.00;;;;;;;22.95;50.23;100582.84;5049115;28;20044;-84
2022/09/06 10:56:17;;;;;;;1.80;0.60;;;;;;;23.15;50.58;100574.59;5048852;28;20067;-84
2022/09/06 10:59:29;;;;;;;2.78;0.52;;;;;;;23.87;48.41;100578.50;5048735;28;20526;-84
2022/09/06 11:03:08;;;;;;;1.25;0.40;;;;;;;23.81;48.07;100568.47;5048595;28;20044;-84
2022/09/06 11:06:47;;;;;;;2.85;0.73;;;;;;;23.62;48.65;100560.75;5048184;28;20079;-83
2022/09/06 11:10:02;;;;;;;1.65;0.57;;;;;;;23.57;48.78;100560.38;5048462;28;20055;-83
2022/09/06 11:13:21;;;;;;;2.38;0.70;;;;;;;23.46;49.19;100550.88;5049615;28;20055;-83
2022/09/06 11:16:38;;;;;;;2.20;0.80;;;;;;;23.58;49.47;100546.91;5068458;28;20399;-83
2022/09/06 11:20:01;;;;;;;2.00;0.82;;;;;;;23.63;48.86;100549.06;5057405;28;20071;-83
2022/09/06 11:23:43;;;;;;;3.15;0.70;;;;;;;23.75;48.87;100547.78;5070546;28;20055;-83
2022/09/06 11:26:56;;;;;;;2.67;0.63;;;;;;;23.63;49.42;100554.41;5072115;28;20449;-83
2022/09/06 11:30:04;;;;;;;2.08;0.60;;;;;;;23.59;49.76;100542.38;5073096;28;20049;-84
2022/09/06 11:33:22;;;;;;;1.77;0.70;;;;;;;23.69;49.97;100536.94;5067818;28;20055;-83
2022/09/06 11:36:38;;;;;;;3.88;0.80;;;;;;;23.68;49.68;100533.41;5072852;28;20071;-84
2022/09/06 11:40:13;;;;;;;2.58;1.02;;;;;;;23.72;50.23;100532.09;5073184;28;20052;-83
2022/09/06 11:43:46;;;;;;;1.95;0.60;;;;;;;23.92;49.23;100524.56;5072627;28;20047;-83
2022/09/06 11:46:51;;;;;;;2.03;0.70;;;;;;;23.92;48.90;100526.41;5072745;28;20047;-83
2022/09/06 11:49:56;;;;;;;4.10;0.90;;;;;;;24.55;46.06;100520.38;5071927;28;20431;-83
2022/09/06 11:53:16;;;;;;;1.45;0.50;;;;;;;24.54;46.38;100527.56;5072763;28;20079;-83
2022/09/06 11:57:05;;;;;;;2.60;0.75;;;;;;;25.12;44.89;100522.84;5071708;28;20067;-84
2022/09/06 12:00:24;;;;;;;5.30;0.85;;;;;;;24.66;46.66;100525.31;5071839;28;20102;-84
2022/09/06 12:03:49;;;;;;;3.70;1.05;;;;;;;25.01;45.74;100520.53;5076292;28;20047;-84
2022/09/06 12:07:08;;;;;;;2.45;0.65;;;;;;;24.69;47.02;100514.28;5063678;28;20299;-84
2022/09/06 12:10:30;;;;;;;3.42;1.17;;;;;;;24.51;47.27;100508.34;5075947;28;20578;-84
2022/09/06 12:13:45;;;;;;;2.03;0.75;;;;;;;24.72;45.82;100497.06;5076037;28;20048;-84
2022/09/06 12:17:03;;;;;;;4.07;0.63;;;;;;;24.87;45.97;100506.03;5075715;28;20503;-84
2022/09/06 12:20:07;;;;;;;3.13;0.90;;;;;;;25.06;45.05;100510.16;5075737;28;20040;-84
2022/09/06 12:23:33;;;;;;;3.78;0.70;;;;;;;25.57;43.94;100501.69;5063314;28;20560;-84
2022/09/06 12:26:47;;;;;;;2.95;0.82;;;;;;;25.67;43.82;100496.91;5075566;28;20047;-84
2022/09/06 12:29:57;;;;;;;3.88;0.95;;;;;;;25.66;43.34;100484.53;5075823;28;20044;-84
2022/09/06 12:33:05;;;;;;;4.05;1.27;;;;;;;25.50;44.42;100480.97;5075801;28;20122;-84
2022/09/06 12:36:23;;;;;;;2.70;0.90;;;;;;;25.60;43.86;100480.72;5075771;28;20109;-84
2022/09/06 12:39:30;;;;;;;1.88;0.85;;;;;;;25.80;42.98;100483.75;5075487;28;20043;-84
2022/09/06 12:42:41;;;;;;;3.05;1.08;;;;;;;26.65;41.90;100479.94;5075300;28;20124;-84
2022/09/06 12:45:46;;;;;;;3.60;0.93;;;;;;;26.77;41.17;100466.84;5075203;28;20113;-84
2022/09/06 12:49:09;;;;;;;3.60;0.98;;;;;;;26.80;40.06;100456.63;5077911;28;20124;-84
2022/09/06 12:52:14;;;;;;;;;;;;;;;27.35;39.14;100448.97;5077695;28;20078;-84
2022/09/06 12:55:21;;;;;;;2.97;0.80;;;;;;;28.05;38.53;100434.72;5079365;28;19919;-84
2022/09/06 12:58:28;;;;;;;3.10;0.75;;;;;;;29.81;35.20;100429.50;5064197;28;20050;-84
2022/09/06 13:01:34;;;;;;;2.55;1.00;;;;;;;32.40;30.31;100427.19;5089480;28;20056;-84
2022/09/06 13:04:47;;;;;;;2.45;0.80;;;;;;;36.09;25.09;100426.06;5096857;28;20100;-84
2022/09/06 13:07:55;;;;;;;2.88;0.77;;;;;;;35.84;25.10;100424.59;5084121;28;20038;-84
2022/09/06 13:11:04;;;;;;;2.97;0.93;;;;;;;33.40;28.00;100440.22;5093844;28;20043;-84
2022/09/06 13:14:14;;;;;;;2.83;1.05;;;;;;;36.51;24.21;100428.25;5079122;28;20526;-84
2022/09/06 13:17:28;;;;;;;2.65;0.90;;;;;;;39.91;20.60;100426.75;5074379;28;20083;-84
2022/09/06 13:20:32;;;;;;;2.95;0.57;;;;;;;35.29;25.26;100433.50;5074626;28;20170;-84
2022/09/06 13:23:47;;;;;;;2.35;0.95;;;;;;;31.61;30.91;100440.41;5074311;28;20415;-84
2022/09/06 13:26:51;;;;;;;3.70;0.90;;;;;;;29.15;35.47;100440.22;5075277;28;20182;-84
2022/09/06 13:30:00;;;;;;;4.00;1.17;;;;;;;27.75;38.44;100441.25;5074694;28;20427;-83
2022/09/06 13:33:06;;;;;;;3.67;1.00;;;;;;;26.94;40.42;100446.03;5074352;28;20098;-83
2022/09/06 13:36:09;;;;;;;3.17;1.00;;;;;;;26.93;40.16;100436.28;5074546;28;20396;-83
2022/09/06 13:39:28;;;;;;;3.55;1.17;;;;;;;26.25;41.84;100427.56;5074095;28;20503;-83
2022/09/06 13:42:37;;;;;;;3.83;0.88;;;;;;;26.35;41.66;100410.19;5075137;28;20139;-83
2022/09/06 13:46:09;;;;;;;3.90;1.02;;;;;;;28.08;38.97;100411.13;5075172;28;20047;-83
2022/09/06 13:49:13;;;;;;;2.85;1.25;;;;;;;36.43;25.36;100401.44;5081409;28;20387;-83
2022/09/06 13:52:17;;;;;;;2.70;0.73;;;;;;;39.75;20.90;100398.59;5073983;28;20044;-84
2022/09/06 13:55:23;;;;;;;4.30;1.27;;;;;;;37.40;22.83;100397.00;5073989;28;20098;-84
2022/09/06 13:58:28;;;;;;;3.78;1.33;;;;;;;33.20;28.70;100393.66;5074032;28;20530;-84
2022/09/06 14:01:32;;;;;;;2.67;0.90;;;;;;;38.64;21.83;100382.94;5073735;28;20094;-84
2022/09/06 14:04:37;;;;;;;3.55;1.35;;;;;;;40.52;19.13;100383.78;5074562;28;20502;-84
2022/09/06 14:07:44;;;;;;;2.33;1.20;;;;;;;40.22;19.62;100369.16;5074237;28;20051;-84
2022/09/06 14:10:49;;;;;;;1.95;0.70;;;;;;;33.43;27.83;100369.31;5073851;28;20051;-84
2022/09/06 14:13:54;;;;;;;2.70;0.88;;;;;;;29.66;34.32;100375.00;5073339;28;20044;-84
2022/09/06 14:16:57;;;;;;;3.45;0.90;;;;;;;27.84;38.02;100389.06;5073278;28;20102;-84
2022/09/06 14:20:03;;;;;;;2.28;0.88;;;;;;;27.11;39.97;100391.91;5073290;28;20043;-84
2022/09/06 14:23:06;;;;;;;2.50;1.00;;;;;;;27.47;39.27;100404.47;5073468;28;20400;-84
2022/09/06 14:26:12;;;;;;;2.65;0.80;;;;;;;27.26;39.28;100407.16;5073501;28;20048;-83
2022/09/06 14:29:15;;;;;;;3.63;1.00;;;;;;;27.23;39.13;100392.28;5073179;28;20039;-83
2022/09/06 14:32:19;;;;;;;3.33;0.90;;;;;;;26.75;40.02;100388.44;5073551;28;20043;-83
2022/09/06 14:35:22;;;;;;;6.35;1.00;;;;;;;26.84;39.57;100392.69;5073161;28;20094;-83
2022/09/06 14:38:26;;;;;;;4.13;1.25;;;;;;;26.53;39.99;100391.06;5073059;28;20093;-83
2022/09/06 14:41:29;;;;;;;6.22;1.00;;;;;;;26.66;39.44;100388.53;5071643;28;20051;-83